Time;durP1;ratioP1;P1;durP2;ratioP2;P2;SDS_P1;SDS_P2;PMS_P1;PMS_P2;Temp;Humidity;BMP_temperature;BMP_pressure;BME280_temperature;BME280_humidity;BME280_pressure;Samples;Min_cycle;Max_cycle;Signal;HPM_P1;HPM_P2
2022/06/27 00:01:26;;;;;;;4.30;2.85;;;;;;;26.85;49.12;100844.38;5054101;28;20060;-81
2022/06/27 00:03:54;;;;;;;5.80;2.60;;;;;;;26.86;49.13;100837.09;5055719;28;20454;-81
2022/06/27 00:06:21;;;;;;;5.00;2.70;;;;;;;26.86;49.12;100845.25;5052830;28;20050;-80
2022/06/27 00:08:49;;;;;;;5.35;2.65;;;;;;;26.88;49.26;100851.31;5054602;28;20041;-81
2022/06/27 00:11:19;;;;;;;4.88;2.63;;;;;;;26.88;49.01;100835.88;5054868;28;20049;-80
2022/06/27 00:13:46;;;;;;;5.97;2.33;;;;;;;26.88;48.88;100835.03;5054133;28;20049;-81
2022/06/27 00:16:14;;;;;;;4.85;2.45;;;;;;;26.89;49.23;100825.84;5055088;28;20476;-80
2022/06/27 00:19:01;;;;;;;6.80;2.85;;;;;;;26.91;49.05;100841.97;5055932;28;20048;-80
2022/06/27 00:21:28;;;;;;;4.78;2.78;;;;;;;26.91;49.29;100842.81;5055802;28;20045;-81
2022/06/27 00:23:56;;;;;;;5.03;2.70;;;;;;;26.92;49.38;100832.78;5054744;28;20049;-80
2022/06/27 00:26:23;;;;;;;5.78;2.78;;;;;;;26.92;49.06;100825.47;5053923;28;20477;-80
2022/06/27 00:28:50;;;;;;;5.70;2.67;;;;;;;26.93;49.11;100826.31;5053534;28;20049;-80
2022/06/27 00:31:18;;;;;;;4.15;3.05;;;;;;;26.93;49.07;100819.00;5053757;28;20057;-79
2022/06/27 00:33:46;;;;;;;5.82;2.88;;;;;;;26.93;48.94;100818.19;5055046;28;20067;-79
2022/06/27 00:36:13;;;;;;;3.25;2.10;;;;;;;26.93;49.22;100813.59;5055076;28;20045;-79
2022/06/27 00:38:40;;;;;;;3.47;2.15;;;;;;;26.94;49.16;100801.72;5052226;28;20060;-79
2022/06/27 00:41:08;;;;;;;5.18;2.78;;;;;;;26.97;48.93;100803.19;5054303;28;20067;-79
2022/06/27 00:43:35;;;;;;;3.42;2.40;;;;;;;26.96;49.02;100794.22;5052332;28;20405;-79
2022/06/27 00:46:03;;;;;;;5.90;2.75;;;;;;;26.96;49.29;100793.38;5052792;28;20079;-79
2022/06/27 00:48:30;;;;;;;4.13;2.17;;;;;;;26.97;48.86;100809.47;5055324;28;20053;-79
2022/06/27 00:50:58;;;;;;;7.78;2.58;;;;;;;26.97;48.89;100820.34;5058152;28;20405;-79
2022/06/27 00:53:28;;;;;;;3.63;2.45;;;;;;;26.99;49.18;100820.19;5057997;28;20052;-80
2022/06/27 00:55:55;;;;;;;7.32;2.45;;;;;;;26.98;49.21;100811.19;5056552;28;20060;-80
2022/06/27 00:58:23;;;;;;;5.72;2.60;;;;;;;26.99;49.24;100812.03;5055909;28;20056;-80
2022/06/27 01:00:50;;;;;;;7.35;2.85;;;;;;;27.00;49.18;100805.56;5056676;28;20045;-80
2022/06/27 01:03:18;;;;;;;5.00;2.45;;;;;;;27.01;48.96;100807.25;5056814;28;20049;-79
2022/06/27 01:05:51;;;;;;;7.93;2.63;;;;;;;27.01;49.20;100799.09;5040237;28;20060;-79
2022/06/27 01:08:20;;;;;;;4.85;2.50;;;;;;;27.01;48.85;100789.06;5057618;28;20392;-80
2022/06/27 01:10:48;;;;;;;3.80;2.72;;;;;;;27.02;49.06;100788.06;5055405;28;20049;-79
2022/06/27 01:13:16;;;;;;;5.07;2.40;;;;;;;27.02;49.19;100782.63;5056363;28;20485;-79
2022/06/27 01:15:45;;;;;;;4.22;2.22;;;;;;;27.02;48.89;100776.31;5040058;28;20057;-79
2022/06/27 01:18:13;;;;;;;4.82;2.40;;;;;;;27.03;49.12;100769.88;5057108;28;20048;-79
2022/06/27 01:20:43;;;;;;;3.78;2.40;;;;;;;27.04;49.33;100758.81;5056550;28;20057;-80
2022/06/27 01:23:12;;;;;;;7.47;2.78;;;;;;;27.04;48.87;100766.13;5056965;28;20048;-79
2022/06/27 01:25:39;;;;;;;8.30;2.95;;;;;;;27.04;49.34;100772.41;5055720;28;20045;-80
2022/06/27 01:28:10;;;;;;;4.88;2.20;;;;;;;27.04;48.84;100772.41;5054929;28;20071;-82
2022/06/27 01:30:37;;;;;;;5.85;2.10;;;;;;;27.04;49.08;100766.97;5056991;28;20064;-82
2022/06/27 01:33:06;;;;;;;4.75;3.05;;;;;;;27.04;49.08;100742.50;5056938;28;20049;-79
2022/06/27 01:35:36;;;;;;;4.25;2.35;;;;;;;27.05;49.02;100740.63;5056673;28;20057;-83
2022/06/27 01:38:05;;;;;;;5.07;2.63;;;;;;;27.05;49.21;100736.03;5056706;28;20041;-83
2022/06/27 01:40:34;;;;;;;5.82;2.72;;;;;;;27.05;49.26;100724.31;5056970;28;20064;-83
2022/06/27 01:43:03;;;;;;;5.35;2.40;;;;;;;27.07;49.20;100722.28;5056118;28;20097;-81
2022/06/27 01:45:33;;;;;;;3.50;2.20;;;;;;;27.06;49.22;100726.00;5040006;28;20049;-81
2022/06/27 01:48:02;;;;;;;3.97;2.10;;;;;;;27.07;49.11;100728.56;5057195;28;20397;-81
2022/06/27 01:50:30;;;;;;;4.75;2.72;;;;;;;27.07;49.10;100736.72;5055528;28;20056;-80
2022/06/27 01:53:00;;;;;;;5.15;2.80;;;;;;;27.07;49.33;100758.44;5057638;28;20045;-80
2022/06/27 01:55:28;;;;;;;6.90;2.63;;;;;;;27.08;49.21;100759.28;5057185;28;20155;-82
2022/06/27 01:57:57;;;;;;;5.60;2.92;;;;;;;27.08;49.54;100760.13;5056355;28;20052;-82
2022/06/27 02:00:25;;;;;;;6.50;2.55;;;;;;;27.08;49.38;100762.00;5053813;28;20492;-82
2022/06/27 02:02:59;;;;;;;5.43;2.25;;;;;;;27.09;49.28;100759.09;5064116;28;20472;-82
2022/06/27 02:05:33;;;;;;;4.45;2.70;;;;;;;27.09;49.26;100783.56;5055568;28;20493;-81
2022/06/27 02:08:03;;;;;;;4.47;2.90;;;;;;;27.10;49.72;100796.16;5039475;28;20412;-81
2022/06/27 02:10:31;;;;;;;5.28;3.00;;;;;;;27.09;49.54;100797.13;5054571;28;20115;-82
2022/06/27 02:12:59;;;;;;;5.05;2.67;;;;;;;27.11;49.05;100802.44;5055071;28;20044;-83
2022/06/27 02:15:27;;;;;;;4.63;2.55;;;;;;;27.10;49.74;100790.72;5055309;28;20064;-82
2022/06/27 02:17:54;;;;;;;5.32;2.78;;;;;;;27.11;49.25;100800.56;5055844;28;20060;-82
2022/06/27 02:20:22;;;;;;;3.97;3.15;;;;;;;27.12;49.27;100812.28;5054909;28;20424;-82
2022/06/27 02:22:50;;;;;;;4.68;2.55;;;;;;;27.13;49.40;100813.13;5055220;28;20045;-84
2022/06/27 02:25:18;;;;;;;4.95;2.70;;;;;;;27.13;49.16;100813.13;5055951;28;20485;-82
2022/06/27 02:27:48;;;;;;;5.68;2.90;;;;;;;27.13;49.50;100810.41;5055896;28;20057;-82
2022/06/27 02:30:16;;;;;;;4.40;2.38;;;;;;;27.13;49.65;100811.22;5055463;28;20437;-81
2022/06/27 02:32:44;;;;;;;4.40;2.30;;;;;;;27.14;49.52;100820.22;5055309;28;20053;-81
2022/06/27 02:35:13;;;;;;;3.47;2.42;;;;;;;27.15;49.24;100821.94;5055676;28;20064;-81
2022/06/27 02:37:42;;;;;;;3.95;2.40;;;;;;;27.15;49.38;100835.53;5055881;28;20056;-81
2022/06/27 02:40:10;;;;;;;4.30;2.60;;;;;;;27.16;49.28;100835.34;5038381;28;20052;-82
2022/06/27 02:42:37;;;;;;;4.25;2.80;;;;;;;27.16;49.32;100843.50;5055663;28;20475;-81
2022/06/27 02:45:05;;;;;;;5.25;3.10;;;;;;;27.16;49.39;100846.22;5055464;28;20053;-82
2022/06/27 02:47:38;;;;;;;5.80;2.70;;;;;;;27.16;49.78;100848.94;5056500;28;20072;-83
2022/06/27 02:50:06;;;;;;;;;;;;;;;27.16;49.49;100848.09;5056245;28;20049;-82
2022/06/27 02:52:45;;;;;;;4.68;2.70;;;;;;;27.17;49.62;100852.47;5039994;28;19979;-83
2022/06/27 02:55:14;;;;;;;4.78;2.55;;;;;;;27.17;49.64;100857.91;5055955;28;20416;-83
2022/06/27 02:57:50;;;;;;;4.35;2.67;;;;;;;27.17;49.76;100861.47;5056036;28;20048;-83
2022/06/27 03:00:27;;;;;;;6.55;2.78;;;;;;;27.18;49.84;100865.03;5039320;28;20057;-83
2022/06/27 03:02:55;;;;;;;5.15;2.83;;;;;;;27.18;49.96;100859.59;5054596;28;20518;-82
2022/06/27 03:05:23;;;;;;;4.13;2.70;;;;;;;27.17;50.38;100861.47;5055962;28;20369;-79
2022/06/27 03:07:51;;;;;;;5.40;2.85;;;;;;;27.19;50.12;100872.19;5054755;28;20127;-80
2022/06/27 03:10:20;;;;;;;5.55;3.13;;;;;;;27.18;49.74;100878.63;5038534;28;20060;-80
2022/06/27 03:12:49;;;;;;;6.38;2.60;;;;;;;27.19;49.99;100874.91;5054931;28;20051;-80
2022/06/27 03:15:16;;;;;;;7.40;2.85;;;;;;;27.18;49.74;100882.19;5054779;28;20057;-82
2022/06/27 03:17:45;;;;;;;5.43;2.88;;;;;;;27.19;50.21;100889.34;5054698;28;20408;-82
2022/06/27 03:20:39;;;;;;;4.05;2.92;;;;;;;27.20;49.98;100890.19;5014603;28;20653;-82
2022/06/27 03:23:30;;;;;;;3.97;2.75;;;;;;;27.20;50.17;100892.88;5013426;28;20449;-81
2022/06/27 03:25:58;;;;;;;6.15;2.60;;;;;;;27.20;49.64;100888.28;5013767;28;20062;-82
2022/06/27 03:28:32;;;;;;;4.90;2.65;;;;;;;27.22;50.43;100893.53;4997138;28;20245;-80
2022/06/27 03:31:02;;;;;;;5.47;3.42;;;;;;;27.21;50.96;100894.56;5012508;28;20054;-80
2022/06/27 03:33:34;;;;;;;4.82;3.05;;;;;;;27.18;51.14;100895.78;5012706;28;20161;-79
2022/06/27 03:36:26;;;;;;;10.75;3.95;;;;;;;27.15;51.49;100889.88;5012969;28;20053;-79
2022/06/27 03:38:54;;;;;;;7.85;4.03;;;;;;;27.11;51.51;100892.13;5011996;28;20613;-80
2022/06/27 03:41:23;;;;;;;8.95;4.22;;;;;;;27.09;51.50;100888.69;4980577;28;20053;-80
2022/06/27 03:43:50;;;;;;;7.75;4.35;;;;;;;27.06;51.14;100897.19;4996783;28;20050;-81
2022/06/27 03:46:19;;;;;;;6.00;3.95;;;;;;;27.03;51.05;100884.00;5012859;28;20054;-80
2022/06/27 03:51:38;;;;;;;6.45;3.75;;;;;;;27.00;51.03;100889.78;5014652;28;20069;-80
2022/06/27 03:54:05;;;;;;;6.88;4.10;;;;;;;26.98;51.08;100899.97;5012458;28;20058;-79
2022/06/27 03:56:33;;;;;;;14.90;4.47;;;;;;;26.96;50.89;100885.75;5014551;28;20054;-79
2022/06/27 03:59:01;;;;;;;10.00;4.15;;;;;;;26.95;50.87;100893.06;5036857;28;20060;-80
2022/06/27 04:01:28;;;;;;;7.43;3.90;;;;;;;26.93;51.04;100889.66;5052364;28;20057;-80
2022/06/27 04:03:55;;;;;;;7.60;4.70;;;;;;;26.92;50.87;100887.97;5053395;28;20131;-79
2022/06/27 04:06:24;;;;;;;7.47;5.07;;;;;;;26.92;50.97;100896.13;5036456;28;20049;-79
2022/06/27 04:08:52;;;;;;;7.32;4.30;;;;;;;26.92;50.95;100889.84;5052943;28;20060;-79
2022/06/27 04:11:19;;;;;;;9.82;5.20;;;;;;;26.89;51.22;100891.03;5054015;28;20044;-79
2022/06/27 04:13:50;;;;;;;7.45;4.78;;;;;;;26.86;51.18;100896.84;5053282;28;20049;-79
2022/06/27 04:16:36;;;;;;;8.73;5.07;;;;;;;26.84;51.27;100898.88;5061182;28;20056;-79
2022/06/27 04:19:26;;;;;;;11.77;5.13;;;;;;;26.81;51.51;100905.50;5052268;28;20060;-79
2022/06/27 04:21:56;;;;;;;7.60;4.68;;;;;;;26.80;51.42;100911.13;5054088;28;20049;-79
2022/06/27 04:24:52;;;;;;;12.63;5.80;;;;;;;26.78;51.66;100907.75;5054356;28;20408;-80
2022/06/27 04:27:32;;;;;;;7.70;4.90;;;;;;;26.75;51.76;100911.69;5052331;28;20497;-80
2022/06/27 04:29:59;;;;;;;9.32;6.13;;;;;;;26.73;51.70;100910.16;5051977;28;20052;-80
2022/06/27 04:32:28;;;;;;;11.45;5.30;;;;;;;26.72;51.81;100914.75;5050818;28;20045;-80
2022/06/27 04:34:55;;;;;;;8.02;4.85;;;;;;;26.73;51.81;100904.72;5038003;28;20408;-80
2022/06/27 04:37:23;;;;;;;10.38;5.32;;;;;;;26.71;52.04;100904.06;5054205;28;20061;-79
2022/06/27 04:40:14;;;;;;;10.25;6.30;;;;;;;26.67;52.15;100900.88;5061129;28;20056;-79
2022/06/27 04:42:44;;;;;;;11.95;6.25;;;;;;;26.61;52.03;100907.84;5051106;28;20044;-80
2022/06/27 04:45:13;;;;;;;8.82;6.18;;;;;;;26.55;52.56;100905.84;5053025;28;20073;-80
2022/06/27 04:47:45;;;;;;;10.45;7.10;;;;;;;26.51;52.55;100906.38;5052732;28;20061;-79
2022/06/27 04:50:18;;;;;;;9.57;6.60;;;;;;;26.46;52.55;100904.22;5054067;28;20033;-80
2022/06/27 04:52:47;;;;;;;10.93;6.28;;;;;;;26.39;52.80;100906.75;5052559;28;20053;-80
2022/06/27 04:55:17;;;;;;;7.60;6.50;;;;;;;26.30;53.07;100904.25;5051936;28;20057;-80
2022/06/27 04:57:48;;;;;;;13.02;6.70;;;;;;;26.24;53.56;100911.22;5052743;28;20056;-80
2022/06/27 05:00:17;;;;;;;7.38;5.60;;;;;;;26.24;53.66;100910.38;5036769;28;20053;-80
2022/06/27 05:03:07;;;;;;;11.98;6.03;;;;;;;26.24;53.95;100918.50;5061306;28;20048;-79
2022/06/27 05:05:38;;;;;;;10.45;5.90;;;;;;;26.27;53.86;100932.56;5052271;28;20423;-79
2022/06/27 05:08:06;;;;;;;9.23;5.20;;;;;;;26.30;53.74;100925.97;5052079;28;20056;-79
2022/06/27 05:10:43;;;;;;;9.68;5.28;;;;;;;26.34;53.80;100933.56;5051667;28;20060;-79
2022/06/27 05:13:10;;;;;;;11.93;6.45;;;;;;;26.35;54.39;100934.41;5052374;28;20045;-80
2022/06/27 05:15:38;;;;;;;10.65;6.40;;;;;;;26.31;54.63;100944.78;5050662;28;20064;-80
2022/06/27 05:18:06;;;;;;;11.13;5.82;;;;;;;26.31;54.69;100947.50;5051692;28;20053;-79
2022/06/27 05:20:34;;;;;;;11.20;7.28;;;;;;;26.30;54.96;100939.53;5051958;28;20045;-79
2022/06/27 05:23:01;;;;;;;9.70;6.05;;;;;;;26.28;54.93;100934.25;5052582;28;20424;-80
2022/06/27 05:25:30;;;;;;;10.77;5.85;;;;;;;26.30;55.10;100931.41;5052234;28;20053;-81
2022/06/27 05:27:58;;;;;;;6.53;5.07;;;;;;;26.32;54.95;100930.19;5053831;28;20055;-81
2022/06/27 05:30:25;;;;;;;7.88;5.00;;;;;;;26.35;54.82;100934.41;5052642;28;20052;-81
2022/06/27 05:32:53;;;;;;;10.35;5.60;;;;;;;26.38;55.18;100942.22;5051656;28;20059;-81
2022/06/27 05:35:21;;;;;;;9.15;5.97;;;;;;;26.39;55.35;100938.47;5054609;28;20077;-81
2022/06/27 05:37:50;;;;;;;10.48;5.60;;;;;;;26.39;55.32;100938.47;5057006;28;20071;-80
2022/06/27 05:40:17;;;;;;;8.55;5.10;;;;;;;26.41;55.02;100944.56;5057039;28;20052;-80
2022/06/27 05:42:47;;;;;;;8.43;4.80;;;;;;;26.45;55.02;100940.50;5055879;28;20064;-80
2022/06/27 05:45:15;;;;;;;8.55;4.93;;;;;;;26.48;54.70;100925.75;5054713;28;20048;-80
2022/06/27 05:48:03;;;;;;;8.43;5.75;;;;;;;26.52;54.89;100929.78;5056732;28;20053;-80
2022/06/27 05:50:36;;;;;;;6.72;4.90;;;;;;;26.55;53.87;100927.56;5055556;28;20056;-81
2022/06/27 05:53:04;;;;;;;8.57;4.47;;;;;;;26.58;55.19;100913.66;5054408;28;20493;-80
2022/06/27 05:55:33;;;;;;;8.25;5.13;;;;;;;26.61;55.40;100912.44;5057273;28;20060;-80
2022/06/27 05:58:03;;;;;;;9.90;6.28;;;;;;;26.60;56.58;100918.88;5055287;28;20404;-80
2022/06/27 06:00:31;;;;;;;10.95;5.88;;;;;;;26.59;57.03;100931.63;5055916;28;20045;-80
2022/06/27 06:02:59;;;;;;;11.13;5.93;;;;;;;26.59;56.61;100931.63;5055710;28;20060;-81
2022/06/27 06:05:28;;;;;;;8.57;5.18;;;;;;;26.61;55.59;100924.13;5055329;28;20372;-81
2022/06/27 06:08:03;;;;;;;11.20;6.03;;;;;;;26.63;56.47;100930.25;5055793;28;20052;-81
2022/06/27 06:10:33;;;;;;;7.55;5.43;;;;;;;26.65;56.14;100926.50;5055747;28;20041;-81
2022/06/27 06:13:03;;;;;;;8.27;6.03;;;;;;;26.66;56.92;100918.19;5055391;28;20053;-81
2022/06/27 06:15:32;;;;;;;8.82;5.97;;;;;;;26.66;59.50;100911.88;5056621;28;20397;-81
2022/06/27 06:18:01;;;;;;;8.60;6.80;;;;;;;26.65;59.73;100915.63;5056251;28;20049;-81
2022/06/27 06:20:29;;;;;;;12.35;7.00;;;;;;;26.62;59.90;100914.97;5056043;28;20511;-81
2022/06/27 06:22:56;;;;;;;10.05;7.13;;;;;;;26.62;60.74;100917.69;5038970;28;20049;-82
2022/06/27 06:25:24;;;;;;;13.55;8.18;;;;;;;26.59;61.27;100915.34;5038004;28;20056;-82
2022/06/27 06:27:51;;;;;;;12.18;8.77;;;;;;;26.60;61.37;100917.00;5054585;28;20057;-81
2022/06/27 06:30:19;;;;;;;12.18;7.47;;;;;;;26.61;61.03;100921.41;5057259;28;20401;-81
2022/06/27 06:32:47;;;;;;;10.43;6.15;;;;;;;26.63;60.62;100935.69;5039201;28;20056;-81
2022/06/27 06:35:16;;;;;;;13.48;8.23;;;;;;;26.66;61.38;100937.19;5054320;28;20060;-82
2022/06/27 06:37:44;;;;;;;15.45;8.68;;;;;;;26.67;61.62;100938.88;5056267;28;20405;-81
2022/06/27 06:40:17;;;;;;;14.35;8.48;;;;;;;26.69;61.76;100934.09;5040274;28;20061;-82
2022/06/27 06:42:45;;;;;;;11.55;8.02;;;;;;;26.69;61.90;100931.38;5055216;28;20060;-80
2022/06/27 06:45:45;;;;;;;19.83;9.50;;;;;;;26.70;63.40;100927.69;4995499;28;20066;-79
2022/06/27 06:48:35;;;;;;;18.45;11.35;;;;;;;26.52;65.84;100925.19;4994446;28;20125;-78
2022/06/27 06:51:04;;;;;;;15.80;10.57;;;;;;;26.47;66.82;100916.75;4993056;28;20061;-79
2022/06/27 06:53:32;;;;;;;13.38;8.63;;;;;;;26.50;65.40;100919.13;5015411;28;20129;-80
2022/06/27 06:56:00;;;;;;;15.23;10.20;;;;;;;26.56;65.27;100931.13;5014770;28;20546;-79
2022/06/27 06:58:28;;;;;;;12.52;8.68;;;;;;;26.61;64.56;100935.00;5015532;28;20057;-78
2022/06/27 07:00:57;;;;;;;15.68;9.25;;;;;;;26.66;64.43;100936.31;5009845;28;20576;-79
2022/06/27 07:03:25;;;;;;;16.10;8.85;;;;;;;26.69;63.83;100935.97;4993373;28;20154;-80
2022/06/27 07:05:54;;;;;;;19.48;8.63;;;;;;;26.71;63.31;100944.81;4993513;28;20051;-79
2022/06/27 07:08:22;;;;;;;11.68;7.63;;;;;;;26.76;62.79;100937.81;4993927;28;20058;-81
2022/06/27 07:10:49;;;;;;;13.75;8.50;;;;;;;26.82;62.36;100952.56;4976905;28;20053;-79
2022/06/27 07:13:19;;;;;;;15.68;8.77;;;;;;;26.87;63.26;100951.00;5008115;28;20054;-79
2022/06/27 07:15:47;;;;;;;20.05;10.23;;;;;;;26.93;63.43;100945.88;5014385;28;20549;-79
2022/06/27 07:18:17;;;;;;;17.00;9.90;;;;;;;26.93;63.09;100949.41;5013000;28;20056;-79
2022/06/27 07:20:45;;;;;;;10.70;7.70;;;;;;;26.96;62.36;100943.63;5004424;28;20507;-77
2022/06/27 07:23:13;;;;;;;17.85;10.68;;;;;;;26.97;63.66;100939.88;5053852;28;20052;-79
2022/06/27 07:25:41;;;;;;;17.40;10.23;;;;;;;27.01;63.26;100945.81;5069539;28;20412;-79
2022/06/27 07:28:08;;;;;;;14.35;8.50;;;;;;;27.03;62.33;100944.63;5054173;28;20045;-79
2022/06/27 07:30:37;;;;;;;18.08;9.45;;;;;;;27.05;62.35;100937.13;5054123;28;20049;-78
2022/06/27 07:33:05;;;;;;;12.63;8.93;;;;;;;27.08;62.15;100933.19;5052402;28;20041;-78
2022/06/27 07:35:33;;;;;;;14.57;9.30;;;;;;;27.09;61.58;100935.72;5053635;28;20048;-77
2022/06/27 07:38:02;;;;;;;12.93;8.38;;;;;;;27.11;61.06;100932.88;5053949;28;20075;-79
2022/06/27 07:40:29;;;;;;;14.48;7.68;;;;;;;27.13;60.67;100921.81;5055276;28;20045;-77
2022/06/27 07:42:56;;;;;;;12.52;7.78;;;;;;;27.11;60.79;100922.00;5053170;28;20045;-79
2022/06/27 07:45:26;;;;;;;13.80;8.15;;;;;;;27.10;60.22;100921.16;5054444;28;20376;-77
2022/06/27 07:47:56;;;;;;;12.55;7.45;;;;;;;27.11;59.96;100924.72;5053774;28;20045;-77
2022/06/27 07:50:39;;;;;;;12.98;6.97;;;;;;;27.11;59.81;100908.41;5069725;28;20405;-82
2022/06/27 07:53:15;;;;;;;13.65;7.10;;;;;;;27.13;59.91;100916.38;5055401;28;20056;-82
2022/06/27 07:55:49;;;;;;;10.60;7.22;;;;;;;27.13;59.19;100916.38;5054292;28;20048;-83
2022/06/27 07:58:18;;;;;;;12.65;7.10;;;;;;;27.13;59.41;100906.34;5068722;28;20041;-79
2022/06/27 08:00:48;;;;;;;10.38;7.07;;;;;;;27.17;59.35;100913.13;5053318;28;20049;-79
2022/06/27 08:06:10;;;;;;;9.20;6.45;;;;;;;27.19;58.90;100905.63;5053600;28;20493;-77
2022/06/27 08:08:39;;;;;;;10.23;6.05;;;;;;;27.21;58.92;100897.28;5053231;28;20041;-77
2022/06/27 08:11:10;;;;;;;11.73;6.53;;;;;;;27.22;59.19;100904.41;5053500;28;20040;-78
2022/06/27 08:13:38;;;;;;;14.85;7.85;;;;;;;27.22;58.28;100912.56;5053725;28;20056;-79
2022/06/27 08:16:06;;;;;;;13.13;7.15;;;;;;;27.30;57.47;100907.91;5053794;28;20045;-79
2022/06/27 08:18:35;;;;;;;12.35;6.53;;;;;;;27.36;57.47;100909.91;5052434;28;20052;-80
2022/06/27 08:21:02;;;;;;;14.15;6.90;;;;;;;27.43;56.98;100893.72;5069133;28;20068;-80
2022/06/27 08:23:31;;;;;;;16.92;7.18;;;;;;;27.49;56.83;100898.41;5052286;28;20342;-81
2022/06/27 08:25:59;;;;;;;11.13;5.80;;;;;;;27.51;56.60;100896.34;5068412;28;20505;-79
2022/06/27 08:28:28;;;;;;;10.32;6.53;;;;;;;27.53;56.55;100882.56;5052882;28;20049;-77
2022/06/27 08:30:57;;;;;;;14.90;7.20;;;;;;;27.69;55.63;100878.84;5052019;28;20044;-76
2022/06/27 08:33:25;;;;;;;16.60;7.22;;;;;;;27.79;55.19;100879.41;5053131;28;20488;-80
2022/06/27 08:35:52;;;;;;;14.50;6.97;;;;;;;27.80;55.25;100881.13;5052903;28;20052;-83
2022/06/27 08:38:20;;;;;;;9.82;5.97;;;;;;;27.77;55.35;100876.06;5053101;28;20384;-81
2022/06/27 08:40:48;;;;;;;12.63;6.45;;;;;;;27.74;55.71;100877.25;5052341;28;20045;-76
2022/06/27 08:43:16;;;;;;;11.80;6.32;;;;;;;27.72;55.80;100882.03;5053573;28;20045;-76
2022/06/27 08:45:46;;;;;;;16.02;6.55;;;;;;;27.76;55.22;100898.88;5052186;28;20052;-81
2022/06/27 08:48:14;;;;;;;14.10;6.80;;;;;;;27.83;54.16;100888.91;5052937;28;20413;-79
2022/06/27 08:50:43;;;;;;;15.00;7.57;;;;;;;27.83;54.50;100895.22;5051499;28;20057;-79
2022/06/27 08:53:12;;;;;;;10.35;5.47;;;;;;;27.81;54.30;100901.88;5052296;28;20072;-77
2022/06/27 08:55:46;;;;;;;12.65;6.82;;;;;;;27.82;53.44;100906.25;5052816;28;20041;-76
2022/06/27 08:58:14;;;;;;;12.60;5.85;;;;;;;27.81;54.14;100902.69;5052790;28;20052;-78
2022/06/27 09:00:45;;;;;;;11.65;7.18;;;;;;;27.91;52.41;100899.69;5052788;28;20041;-79
2022/06/27 09:03:17;;;;;;;12.27;6.70;;;;;;;27.98;52.39;100899.81;5051428;28;20049;-79
2022/06/27 09:06:05;;;;;;;14.70;6.85;;;;;;;27.95;52.61;100903.72;5052514;28;20400;-79
2022/06/27 09:08:36;;;;;;;16.48;6.63;;;;;;;27.94;53.05;100904.78;5051318;28;20056;-78
2022/06/27 09:11:04;;;;;;;10.00;6.15;;;;;;;27.94;53.06;100901.22;5055681;28;20481;-78
2022/06/27 09:13:32;;;;;;;17.67;7.38;;;;;;;27.94;52.87;100898.50;5056480;28;20040;-78
2022/06/27 09:16:01;;;;;;;13.43;5.93;;;;;;;27.91;52.91;100885.25;5055119;28;20052;-77
2022/06/27 09:18:32;;;;;;;12.52;6.25;;;;;;;27.89;53.43;100882.72;5056899;28;20147;-76
2022/06/27 09:21:11;;;;;;;13.02;5.78;;;;;;;27.87;53.20;100871.16;5055083;28;20048;-82
2022/06/27 09:23:43;;;;;;;19.35;6.70;;;;;;;27.85;53.49;100884.13;5056134;28;20052;-77
2022/06/27 09:26:15;;;;;;;11.23;5.65;;;;;;;27.82;53.45;100874.47;5056537;28;20049;-79
2022/06/27 09:28:50;;;;;;;11.20;6.50;;;;;;;27.83;53.19;100883.47;5055128;28;20052;-79
2022/06/27 09:31:27;;;;;;;11.88;5.82;;;;;;;27.88;53.00;100881.03;5056954;28;20045;-81
2022/06/27 09:34:09;;;;;;;15.07;6.53;;;;;;;27.91;52.74;100877.09;5055298;28;20076;-81
2022/06/27 09:36:44;;;;;;;14.80;7.35;;;;;;;27.91;53.35;100863.47;5056263;28;20051;-81
2022/06/27 09:39:21;;;;;;;13.05;6.75;;;;;;;27.88;53.20;100864.72;5055266;28;20052;-78
2022/06/27 09:41:56;;;;;;;13.35;5.95;;;;;;;27.88;53.73;100866.59;5056797;28;20424;-79
2022/06/27 09:44:33;;;;;;;16.95;7.07;;;;;;;27.95;52.93;100865.63;5056176;28;20064;-77
2022/06/27 09:47:15;;;;;;;9.15;5.38;;;;;;;27.96;53.15;100858.34;5055565;28;20056;-78
2022/06/27 09:49:46;;;;;;;13.47;6.30;;;;;;;27.93;53.44;100845.94;5054632;28;20064;-78
2022/06/27 09:52:17;;;;;;;9.25;6.43;;;;;;;27.92;53.60;100857.88;5055960;28;20068;-79
2022/06/27 09:54:47;;;;;;;11.48;6.10;;;;;;;27.91;53.19;100852.59;5056242;28;20049;-79
2022/06/27 09:57:16;;;;;;;14.60;7.28;;;;;;;27.91;52.11;100852.59;5054777;28;20052;-79
2022/06/27 09:59:45;;;;;;;13.93;6.93;;;;;;;27.92;52.30;100841.53;5054628;28;20056;-79
2022/06/27 10:02:16;;;;;;;12.82;6.57;;;;;;;27.92;52.43;100846.16;5058629;28;20410;-78
2022/06/27 10:04:46;;;;;;;14.38;6.50;;;;;;;27.94;51.30;100844.91;5076422;28;20520;-78
2022/06/27 10:07:15;;;;;;;12.98;5.65;;;;;;;27.97;51.19;100849.97;5076209;28;20056;-79
2022/06/27 10:09:43;;;;;;;12.35;6.07;;;;;;;27.98;51.58;100843.50;5075808;28;20044;-78
2022/06/27 10:12:26;;;;;;;14.77;7.05;;;;;;;27.99;51.03;100847.06;5076917;28;20087;-78
2022/06/27 10:15:14;;;;;;;;;;;;;;;28.00;50.84;100838.72;5077642;28;20049;-79
2022/06/27 10:17:49;;;;;;;19.88;6.60;;;;;;;28.00;51.12;100835.16;5076364;28;19931;-80
2022/06/27 10:20:20;;;;;;;11.63;5.75;;;;;;;28.00;51.54;100835.16;5075957;28;20052;-78
2022/06/27 10:23:03;;;;;;;16.65;7.28;;;;;;;28.01;51.09;100837.69;5074959;28;20048;-78
2022/06/27 10:25:31;;;;;;;20.25;7.43;;;;;;;28.05;51.88;100825.38;5076898;28;20059;-78
2022/06/27 10:28:11;;;;;;;17.35;6.40;;;;;;;28.12;51.72;100824.66;5075008;28;20044;-80
2022/06/27 10:30:39;;;;;;;18.73;6.72;;;;;;;28.13;51.91;100823.59;5074824;28;20053;-78
2022/06/27 10:33:28;;;;;;;15.55;6.75;;;;;;;28.16;52.94;100821.34;5074014;28;20037;-78
2022/06/27 10:35:57;;;;;;;13.15;6.47;;;;;;;28.20;52.63;100817.19;5075059;28;20048;-76
2022/06/27 10:38:33;;;;;;;15.25;5.35;;;;;;;28.23;53.17;100818.69;5074998;28;20056;-79
2022/06/27 10:41:03;;;;;;;16.80;6.70;;;;;;;28.29;54.00;100816.03;5073883;28;20055;-78
2022/06/27 10:43:39;;;;;;;20.83;6.22;;;;;;;28.37;53.38;100820.56;5074993;28;20068;-78
2022/06/27 10:46:09;;;;;;;18.63;6.55;;;;;;;28.42;52.67;100818.09;5075083;28;20044;-78
2022/06/27 10:48:48;;;;;;;13.25;5.75;;;;;;;28.42;53.18;100814.53;5074733;28;20396;-79
2022/06/27 10:51:27;;;;;;;13.10;5.82;;;;;;;28.41;53.41;100813.72;5075159;28;20044;-78
2022/06/27 10:54:06;;;;;;;19.13;5.97;;;;;;;28.51;53.54;100819.66;5075090;28;20036;-79
2022/06/27 10:56:41;;;;;;;16.70;6.10;;;;;;;28.60;52.94;100817.66;5073684;28;20403;-77
2022/06/27 10:59:14;;;;;;;15.30;6.78;;;;;;;28.63;52.58;100805.53;5074478;28;20044;-79
2022/06/27 11:01:42;;;;;;;17.80;6.30;;;;;;;28.59;52.45;100805.94;5074711;28;20056;-80
2022/06/27 11:04:34;;;;;;;12.30;5.65;;;;;;;28.57;52.89;100808.00;5056788;28;20060;-78
2022/06/27 11:07:07;;;;;;;13.57;5.45;;;;;;;28.57;51.94;100810.75;5072090;28;20431;-77
2022/06/27 11:09:44;;;;;;;17.85;5.88;;;;;;;28.61;52.36;100807.63;5074570;28;20052;-79
2022/06/27 11:12:18;;;;;;;18.13;6.03;;;;;;;28.61;52.10;100810.34;5072892;28;20055;-79
2022/06/27 11:14:49;;;;;;;15.23;6.45;;;;;;;28.64;52.36;100807.22;5074220;28;20055;-79
2022/06/27 11:17:36;;;;;;;17.98;6.45;;;;;;;28.67;52.17;100804.97;5073013;28;20059;-79
2022/06/27 11:20:26;;;;;;;19.85;5.90;;;;;;;28.70;52.33;100801.84;5072761;28;20063;-78
2022/06/27 11:23:10;;;;;;;16.42;6.05;;;;;;;28.72;51.98;100796.19;5074116;28;20051;-81
2022/06/27 11:25:41;;;;;;;14.80;5.90;;;;;;;28.74;51.03;100796.84;5075325;28;20041;-82
2022/06/27 11:33:42;;;;;;;14.23;5.43;;;;;;;28.83;50.68;100773.88;5073193;28;20045;-79
2022/06/27 11:36:13;;;;;;;14.30;5.05;;;;;;;28.80;50.89;100772.41;5074073;28;20055;-78
2022/06/27 11:38:44;;;;;;;18.85;5.75;;;;;;;28.79;50.72;100780.75;5072680;28;20049;-79
2022/06/27 11:41:16;;;;;;;18.05;5.40;;;;;;;28.79;49.92;100778.03;5073758;28;20052;-78
2022/06/27 11:43:49;;;;;;;17.95;6.32;;;;;;;28.80;49.65;100779.72;5072078;28;20048;-77
2022/06/27 11:46:41;;;;;;;19.02;6.35;;;;;;;28.78;50.28;100777.19;5073282;28;20056;-79
2022/06/27 11:49:10;;;;;;;17.17;5.97;;;;;;;28.78;50.42;100766.28;5073381;28;20385;-78
2022/06/27 11:51:40;;;;;;;19.20;6.63;;;;;;;28.76;50.49;100767.53;5073625;28;20045;-76